Time;durP1;ratioP1;P1;durP2;ratioP2;P2;SDS_P1;SDS_P2;PMS_P1;PMS_P2;Temp;Humidity;BMP_temperature;BMP_pressure;BME280_temperature;BME280_humidity;BME280_pressure;Samples;Min_cycle;Max_cycle;Signal;HPM_P1;HPM_P2
2021/06/09 00:00:22;;;;;;;2.60;1.47;;;;;;;14.53;63.94;101610.22;5036637;28;20195;-70
2021/06/09 00:02:47;;;;;;;2.73;1.63;;;;;;;14.46;64.30;101606.13;5028393;28;20172;-69
2021/06/09 00:05:12;;;;;;;2.10;1.40;;;;;;;14.41;63.66;101610.88;5017730;28;20184;-69
2021/06/09 00:07:38;;;;;;;2.13;1.80;;;;;;;14.33;65.26;101614.00;5017362;28;20258;-68
2021/06/09 00:10:04;;;;;;;4.03;1.70;;;;;;;14.26;65.84;101604.56;5017528;28;20231;-69
2021/06/09 00:12:29;;;;;;;1.70;1.40;;;;;;;14.22;65.46;101603.00;5034025;28;20176;-69
2021/06/09 00:14:54;;;;;;;2.37;1.60;;;;;;;14.27;66.38;101606.28;5031904;28;20266;-69
2021/06/09 00:17:20;;;;;;;1.80;1.30;;;;;;;14.31;66.37;101604.28;5030629;28;20176;-69
2021/06/09 00:19:45;;;;;;;1.40;1.27;;;;;;;14.30;66.95;101600.75;5028959;28;20191;-69
2021/06/09 00:22:10;;;;;;;2.60;1.50;;;;;;;14.31;66.19;101601.59;5017821;28;20204;-70
2021/06/09 00:24:36;;;;;;;1.63;1.30;;;;;;;14.30;65.83;101599.88;5017518;28;20172;-70
2021/06/09 00:27:01;;;;;;;1.53;1.17;;;;;;;14.28;65.86;101604.47;5017833;28;20188;-70
2021/06/09 00:29:26;;;;;;;1.40;1.10;;;;;;;14.28;65.96;101596.41;5035162;28;20173;-70
2021/06/09 00:31:52;;;;;;;2.90;1.40;;;;;;;14.26;66.73;101598.31;5034914;28;20192;-70
2021/06/09 00:34:17;;;;;;;2.83;1.60;;;;;;;14.27;67.46;101603.59;5017250;28;20172;-70
2021/06/09 00:36:42;;;;;;;1.90;1.20;;;;;;;14.23;66.88;101598.50;5017356;28;20191;-70
2021/06/09 00:39:08;;;;;;;1.67;1.17;;;;;;;14.17;65.23;101602.38;5017424;28;20172;-70
2021/06/09 00:41:35;;;;;;;1.43;1.33;;;;;;;14.15;65.27;101598.06;5000634;28;20196;-70
2021/06/09 00:44:03;;;;;;;2.50;1.50;;;;;;;14.12;65.62;101596.38;5017349;28;20168;-69
2021/06/09 00:46:33;;;;;;;1.50;1.30;;;;;;;14.09;67.01;101597.41;5017148;28;20230;-69
2021/06/09 00:48:59;;;;;;;2.63;1.30;;;;;;;14.02;69.19;101600.53;5000548;28;20310;-69
2021/06/09 00:51:24;;;;;;;1.30;1.17;;;;;;;14.00;69.97;101599.75;5034556;28;20254;-69
2021/06/09 00:53:51;;;;;;;5.57;1.60;;;;;;;13.97;69.46;101598.09;5017055;28;20238;-69
2021/06/09 00:56:18;;;;;;;4.50;1.40;;;;;;;13.98;69.83;101605.19;5017386;28;20172;-69
2021/06/09 00:58:46;;;;;;;2.17;1.47;;;;;;;13.93;70.63;101595.69;5000433;28;20179;-69
2021/06/09 01:01:13;;;;;;;1.80;1.70;;;;;;;13.89;70.71;101602.16;5016917;28;20208;-69
2021/06/09 01:03:39;;;;;;;1.70;1.40;;;;;;;13.83;70.90;101600.69;5034584;28;20173;-69
2021/06/09 01:06:05;;;;;;;3.47;1.70;;;;;;;13.76;70.78;101600.16;5000362;28;20206;-69
2021/06/09 01:08:36;;;;;;;1.37;1.23;;;;;;;13.72;70.66;101595.00;5034240;28;20177;-70
2021/06/09 01:11:03;;;;;;;1.60;1.50;;;;;;;13.73;70.42;101596.75;5017286;28;20266;-70
2021/06/09 01:13:29;;;;;;;2.27;1.40;;;;;;;13.69;70.06;101597.88;5016813;28;20176;-69
2021/06/09 01:15:55;;;;;;;2.43;1.47;;;;;;;13.64;69.48;101592.75;5000660;28;20641;-69
2021/06/09 01:18:21;;;;;;;3.53;1.80;;;;;;;13.55;71.57;101595.06;5016859;28;20177;-69
2021/06/09 01:20:47;;;;;;;4.03;1.97;;;;;;;13.45;72.06;101598.25;5016617;28;20199;-69
2021/06/09 01:23:12;;;;;;;2.30;1.77;;;;;;;13.34;72.40;101591.69;5000235;28;20172;-68
2021/06/09 01:25:38;;;;;;;1.93;1.73;;;;;;;13.22;73.70;101595.00;5034261;28;20169;-69
2021/06/09 01:28:04;;;;;;;5.63;1.87;;;;;;;13.26;74.16;101594.78;4999882;28;20200;-69
2021/06/09 01:30:30;;;;;;;5.30;1.50;;;;;;;13.26;72.95;101586.72;5016511;28;20187;-69
2021/06/09 01:32:57;;;;;;;1.70;1.30;;;;;;;13.30;72.78;101590.97;5016754;28;20171;-69
2021/06/09 01:35:22;;;;;;;2.03;1.63;;;;;;;13.37;73.47;101589.72;5016912;28;20556;-69
2021/06/09 01:37:49;;;;;;;2.07;1.60;;;;;;;13.42;73.10;101586.81;5016235;28;20168;-69
2021/06/09 01:40:17;;;;;;;3.47;1.50;;;;;;;13.43;74.15;101592.09;5016189;28;20172;-69
2021/06/09 01:42:42;;;;;;;2.40;1.60;;;;;;;13.45;74.94;101592.00;4999615;28;20184;-69
2021/06/09 01:45:11;;;;;;;1.97;1.50;;;;;;;13.44;75.58;101595.63;5015974;28;20218;-69
2021/06/09 01:47:36;;;;;;;2.60;1.60;;;;;;;13.38;75.90;101594.16;4983115;28;20289;-69
2021/06/09 01:50:04;;;;;;;2.40;1.60;;;;;;;13.37;76.49;101603.13;5015757;28;20184;-69
2021/06/09 01:52:29;;;;;;;1.50;1.40;;;;;;;13.36;75.50;101600.50;5055769;22;20228;-68
2021/06/09 01:54:55;;;;;;;4.20;1.50;;;;;;;13.36;75.45;101601.38;5015798;28;20187;-68
2021/06/09 01:57:20;;;;;;;4.77;1.90;;;;;;;13.41;76.04;101594.00;5015723;28;20181;-68
2021/06/09 01:59:46;;;;;;;4.57;1.93;;;;;;;13.41;75.85;101595.81;5015723;28;20615;-68
2021/06/09 02:02:11;;;;;;;2.30;2.03;;;;;;;13.36;76.28;101596.00;5033388;28;20192;-68
2021/06/09 02:04:39;;;;;;;2.63;1.90;;;;;;;13.32;75.71;101596.25;4999318;28;20319;-68
2021/06/09 02:07:05;;;;;;;2.13;1.93;;;;;;;13.27;75.89;101595.63;5015566;28;20207;-68
2021/06/09 02:09:30;;;;;;;3.17;1.93;;;;;;;13.27;75.10;101599.19;5015658;28;20184;-68
2021/06/09 02:11:55;;;;;;;2.83;2.30;;;;;;;13.27;76.79;101596.50;5015521;28;20192;-68
2021/06/09 02:14:21;;;;;;;2.00;1.70;;;;;;;13.27;76.25;101599.19;5033164;28;20203;-68
2021/06/09 02:16:48;;;;;;;2.13;1.60;;;;;;;13.21;75.87;101594.16;5033141;28;20176;-68
2021/06/09 02:19:13;;;;;;;2.10;1.90;;;;;;;13.19;74.42;101593.38;5015528;28;20176;-68
2021/06/09 02:21:40;;;;;;;3.00;1.93;;;;;;;13.20;73.75;101592.41;5033395;28;20192;-68
2021/06/09 02:24:07;;;;;;;2.03;1.70;;;;;;;13.23;72.45;101588.72;5015447;28;20656;-68
2021/06/09 02:26:33;;;;;;;4.20;1.90;;;;;;;13.24;71.58;101587.75;4998850;28;20639;-68
2021/06/09 02:29:00;;;;;;;1.90;1.70;;;;;;;13.25;70.32;101587.69;4998886;28;20266;-68
2021/06/09 02:31:26;;;;;;;2.07;1.50;;;;;;;13.31;68.70;101576.63;5015378;28;20683;-68
2021/06/09 02:33:51;;;;;;;2.20;2.00;;;;;;;13.37;69.68;101580.78;5015547;28;20181;-68
2021/06/09 02:36:17;;;;;;;2.13;1.60;;;;;;;13.41;70.60;101575.22;5033222;28;20176;-68
2021/06/09 02:38:42;;;;;;;2.23;1.80;;;;;;;13.43;72.32;101580.50;5015626;28;20172;-68
2021/06/09 02:41:08;;;;;;;3.90;2.00;;;;;;;13.42;73.06;101573.41;5015183;28;20196;-67
2021/06/09 02:43:34;;;;;;;1.70;1.60;;;;;;;13.37;73.77;101575.44;5033047;28;20191;-67
2021/06/09 02:46:16;;;;;;;1.73;1.63;;;;;;;13.37;73.44;101581.66;5032783;28;20660;-67
2021/06/09 02:48:45;;;;;;;2.97;1.60;;;;;;;13.35;72.83;101580.00;5015164;28;20226;-67
2021/06/09 02:51:18;;;;;;;5.27;1.90;;;;;;;13.37;72.60;101581.66;5015188;28;20242;-68
2021/06/09 02:53:53;;;;;;;4.13;1.70;;;;;;;13.35;72.84;101578.19;5015183;28;20179;-68
2021/06/09 02:56:30;;;;;;;2.33;1.60;;;;;;;13.31;72.20;101578.44;5015164;28;20605;-68
2021/06/09 02:59:04;;;;;;;4.87;1.77;;;;;;;13.33;71.97;101585.47;4998805;28;20230;-68
2021/06/09 03:01:39;;;;;;;1.70;1.60;;;;;;;13.36;72.09;101579.94;5032954;28;20279;-68
2021/06/09 03:04:11;;;;;;;3.23;1.90;;;;;;;13.38;74.19;101580.75;4999079;28;20195;-68
2021/06/09 03:07:20;;;;;;;2.33;1.80;;;;;;;13.35;72.36;101585.38;5032986;28;20653;-68
2021/06/09 03:10:02;;;;;;;2.70;1.77;;;;;;;13.37;72.12;101584.34;4954266;28;20687;-68
2021/06/09 03:12:40;;;;;;;1.77;1.50;;;;;;;13.39;71.20;101574.44;5015109;28;20200;-68
2021/06/09 03:15:14;;;;;;;2.30;1.90;;;;;;;13.45;70.56;101574.09;5032611;28;20176;-68
2021/06/09 03:17:52;;;;;;;1.70;1.60;;;;;;;13.50;71.30;101575.66;5032749;28;20152;-68
2021/06/09 03:20:34;;;;;;;2.70;1.77;;;;;;;13.54;72.49;101567.38;5032638;28;20175;-67
2021/06/09 03:23:07;;;;;;;1.73;1.63;;;;;;;13.56;72.48;101570.84;5032711;28;20160;-67
2021/06/09 03:25:49;;;;;;;2.70;2.33;;;;;;;13.58;73.09;101566.25;5015446;28;20241;-68
2021/06/09 03:28:19;;;;;;;2.83;1.60;;;;;;;13.60;73.48;101568.84;5015178;28;20525;-68
2021/06/09 03:30:49;;;;;;;1.73;1.53;;;;;;;13.57;73.84;101571.72;4998712;28;20627;-68
2021/06/09 03:33:15;;;;;;;3.93;1.60;;;;;;;13.57;72.90;101577.06;5033155;28;20529;-68
2021/06/09 03:35:45;;;;;;;2.80;1.80;;;;;;;13.57;73.00;101567.22;5015201;28;20185;-68
2021/06/09 03:38:21;;;;;;;1.60;1.50;;;;;;;13.61;72.36;101571.47;5018936;28;20165;-69
2021/06/09 03:40:47;;;;;;;1.80;1.70;;;;;;;13.62;71.64;101565.16;5036830;28;20543;-68
2021/06/09 03:43:13;;;;;;;1.77;1.67;;;;;;;13.65;71.59;101575.72;5018851;28;20185;-68
2021/06/09 03:45:42;;;;;;;2.33;1.70;;;;;;;13.70;71.11;101567.41;5018535;28;20184;-68
2021/06/09 03:48:09;;;;;;;2.10;1.90;;;;;;;13.73;70.25;101572.59;5036177;28;20254;-68
2021/06/09 03:50:35;;;;;;;3.53;1.70;;;;;;;13.74;70.06;101569.84;5018089;28;20173;-68
2021/06/09 03:53:04;;;;;;;2.20;1.70;;;;;;;13.74;69.15;101572.50;5018071;28;20185;-69
2021/06/09 03:55:32;;;;;;;2.00;1.60;;;;;;;13.74;69.05;101568.97;5018950;28;20184;-68
2021/06/09 03:57:58;;;;;;;3.20;1.90;;;;;;;13.78;68.38;101573.25;5017851;28;20206;-68
2021/06/09 04:00:24;;;;;;;3.20;1.90;;;;;;;13.84;69.36;101574.72;5018034;28;20176;-68
2021/06/09 04:02:50;;;;;;;2.53;1.90;;;;;;;13.85;69.14;101574.63;5017827;28;20249;-70
2021/06/09 04:05:15;;;;;;;2.53;1.70;;;;;;;13.90;69.11;101572.56;5018366;28;20572;-69
2021/06/09 04:07:43;;;;;;;2.37;1.90;;;;;;;13.89;69.00;101565.47;5017747;28;20200;-69
2021/06/09 04:10:09;;;;;;;3.40;1.83;;;;;;;13.93;68.89;101568.84;5017888;28;20168;-68
2021/06/09 04:12:35;;;;;;;3.13;2.03;;;;;;;13.96;69.43;101572.22;5035769;28;20282;-68
2021/06/09 04:15:02;;;;;;;2.30;2.07;;;;;;;13.99;68.71;101569.38;5018372;28;20188;-68
2021/06/09 04:17:29;;;;;;;3.03;2.00;;;;;;;14.02;68.67;101574.56;5017753;28;20230;-68
2021/06/09 04:19:57;;;;;;;4.10;2.00;;;;;;;14.06;67.94;101570.75;5017759;28;20184;-68
2021/06/09 04:22:23;;;;;;;5.80;2.13;;;;;;;14.11;68.05;101577.66;5017882;28;20218;-68
2021/06/09 04:24:48;;;;;;;2.80;2.00;;;;;;;14.18;66.94;101579.09;5035570;28;20180;-68
2021/06/09 04:27:15;;;;;;;2.43;1.93;;;;;;;14.24;66.92;101579.59;5035433;28;20203;-69
2021/06/09 04:29:42;;;;;;;2.70;1.80;;;;;;;14.31;66.24;101580.13;5017362;28;20180;-69
2021/06/09 04:32:07;;;;;;;2.60;1.63;;;;;;;14.36;65.59;101576.22;5017875;28;20580;-68
2021/06/09 04:34:47;;;;;;;3.03;1.80;;;;;;;14.38;65.70;101579.69;5017591;28;20233;-68
2021/06/09 04:37:13;;;;;;;2.10;1.90;;;;;;;14.42;66.07;101577.69;5034936;28;20168;-68
2021/06/09 04:39:40;;;;;;;2.47;1.87;;;;;;;14.48;65.85;101571.97;5034774;28;20198;-68
2021/06/09 04:42:06;;;;;;;5.63;2.10;;;;;;;14.55;65.09;101572.53;5034897;28;20215;-68
2021/06/09 04:44:33;;;;;;;3.20;1.93;;;;;;;14.62;64.95;101576.59;5017188;28;20195;-67
2021/06/09 04:46:58;;;;;;;1.73;1.63;;;;;;;14.66;64.39;101581.69;5017046;28;20200;-67
2021/06/09 04:49:39;;;;;;;4.43;2.50;;;;;;;14.72;64.60;101574.22;5016041;28;20180;-70
2021/06/09 04:52:05;;;;;;;3.40;2.17;;;;;;;14.76;65.05;101576.63;5034282;28;20222;-67
2021/06/09 04:54:31;;;;;;;9.63;2.40;;;;;;;14.88;65.34;101573.25;5017017;28;20183;-67
2021/06/09 04:56:56;;;;;;;6.03;2.20;;;;;;;15.11;64.90;101576.38;5034685;28;20173;-67
2021/06/09 04:59:22;;;;;;;3.13;2.00;;;;;;;15.28;64.07;101574.41;5017427;28;20181;-69
2021/06/09 05:01:48;;;;;;;6.77;1.77;;;;;;;15.43;63.52;101569.03;5016805;28;20665;-68
2021/06/09 05:04:13;;;;;;;5.30;2.33;;;;;;;15.54;62.67;101580.00;5017535;28;20238;-67
2021/06/09 05:06:38;;;;;;;4.93;2.33;;;;;;;15.65;62.44;101585.63;5016504;28;20234;-67
2021/06/09 05:09:05;;;;;;;2.90;2.10;;;;;;;15.73;62.43;101575.25;5034242;28;20619;-68
2021/06/09 05:11:50;;;;;;;5.10;2.27;;;;;;;15.77;62.08;101582.16;5034149;28;20232;-67
2021/06/09 05:14:28;;;;;;;3.80;2.40;;;;;;;15.80;60.82;101578.41;5016549;28;20210;-66
2021/06/09 05:16:54;;;;;;;4.33;2.70;;;;;;;15.88;60.13;101581.47;5016549;28;20605;-67
2021/06/09 05:19:23;;;;;;;4.10;3.03;;;;;;;15.89;60.98;101578.69;5016384;28;20183;-67
2021/06/09 05:21:51;;;;;;;6.93;3.10;;;;;;;15.89;60.31;101578.69;5016371;28;20597;-69
2021/06/09 05:24:19;;;;;;;4.33;3.13;;;;;;;15.88;60.33;101570.72;5016990;28;20241;-68
2021/06/09 05:26:44;;;;;;;3.63;2.77;;;;;;;15.85;60.20;101569.06;5016860;28;20660;-67
2021/06/09 05:29:10;;;;;;;3.70;2.53;;;;;;;15.84;60.62;101578.13;5033712;28;20263;-67
2021/06/09 05:31:37;;;;;;;4.90;2.47;;;;;;;15.76;61.21;101572.34;4999829;28;20228;-68
2021/06/09 05:34:02;;;;;;;3.47;2.73;;;;;;;15.79;61.16;101572.16;5033834;28;20259;-68
2021/06/09 05:36:29;;;;;;;3.93;2.40;;;;;;;15.87;61.22;101577.91;5015884;28;20540;-68
2021/06/09 05:38:54;;;;;;;4.73;2.47;;;;;;;16.02;60.74;101584.19;5016137;28;20259;-68
2021/06/09 05:41:20;;;;;;;3.27;2.23;;;;;;;16.08;61.03;101578.41;5033564;28;20279;-67
2021/06/09 05:43:45;;;;;;;3.83;2.20;;;;;;;16.17;61.08;101585.00;5015847;28;20199;-68
2021/06/09 05:46:11;;;;;;;5.10;2.90;;;;;;;16.18;60.92;101584.03;5033755;28;20180;-69
2021/06/09 05:48:43;;;;;;;3.60;2.53;;;;;;;16.23;61.34;101580.09;5016222;28;20230;-70
2021/06/09 05:51:10;;;;;;;3.00;2.50;;;;;;;16.33;60.83;101577.66;5016345;28;20203;-68
2021/06/09 05:53:36;;;;;;;9.67;2.40;;;;;;;16.44;61.17;101583.22;5016048;28;20160;-68
2021/06/09 05:56:01;;;;;;;5.83;2.40;;;;;;;16.50;61.43;101569.34;5015886;28;20533;-69
2021/06/09 05:58:27;;;;;;;2.50;2.30;;;;;;;16.60;61.32;101574.97;5033608;28;20679;-68
2021/06/09 06:00:56;;;;;;;4.03;2.20;;;;;;;16.69;61.55;101584.31;5015553;28;20232;-69
2021/06/09 06:03:22;;;;;;;4.73;2.17;;;;;;;16.82;61.20;101582.53;5016747;28;20263;-69
2021/06/09 06:05:50;;;;;;;3.47;2.47;;;;;;;16.82;61.22;101572.63;5034005;28;20216;-68
2021/06/09 06:08:15;;;;;;;3.70;2.47;;;;;;;16.93;61.39;101579.13;5016257;28;20218;-69
2021/06/09 06:10:40;;;;;;;2.30;2.00;;;;;;;17.02;61.48;101581.19;5017222;28;20267;-69
2021/06/09 06:13:07;;;;;;;5.30;2.40;;;;;;;16.99;61.31;101584.94;5019307;28;20187;-70
2021/06/09 06:15:32;;;;;;;2.10;1.90;;;;;;;17.17;61.77;101583.72;5038650;28;20168;-69
2021/06/09 06:17:57;;;;;;;3.63;2.13;;;;;;;17.33;61.26;101588.03;5033529;28;20263;-68
2021/06/09 06:20:23;;;;;;;3.00;2.10;;;;;;;17.33;61.18;101577.25;5033460;28;20176;-67
2021/06/09 06:22:50;;;;;;;3.87;2.13;;;;;;;17.52;60.96;101583.09;5015921;28;20211;-67
2021/06/09 06:25:18;;;;;;;3.93;2.40;;;;;;;17.60;61.15;101588.81;5033209;28;20633;-69
2021/06/09 06:27:45;;;;;;;2.37;2.17;;;;;;;17.65;60.66;101585.78;5015997;28;20293;-68
2021/06/09 06:30:11;;;;;;;3.87;2.57;;;;;;;17.77;60.50;101580.41;5033623;28;20191;-69
2021/06/09 06:32:37;;;;;;;3.27;2.10;;;;;;;17.84;60.75;101580.88;5015628;28;20210;-68
2021/06/09 06:35:03;;;;;;;2.83;2.10;;;;;;;17.91;60.93;101581.28;5015378;28;20517;-68
2021/06/09 06:37:29;;;;;;;5.87;2.97;;;;;;;18.05;60.28;101582.00;5015254;28;20176;-69
2021/06/09 06:39:54;;;;;;;4.67;2.37;;;;;;;18.10;60.27;101587.06;5015537;28;20591;-68
2021/06/09 06:42:20;;;;;;;5.43;2.43;;;;;;;18.06;60.70;101577.47;5032814;28;20228;-69
2021/06/09 06:44:45;;;;;;;4.50;2.10;;;;;;;18.15;60.74;101586.72;5015331;28;20172;-68
2021/06/09 06:47:12;;;;;;;7.03;1.93;;;;;;;18.32;60.47;101581.84;5032950;28;20734;-68
2021/06/09 06:49:38;;;;;;;2.50;2.17;;;;;;;18.42;60.15;101585.56;5033061;28;20279;-68
2021/06/09 06:52:04;;;;;;;4.43;2.80;;;;;;;18.56;59.98;101586.38;5032502;28;20219;-67
2021/06/09 06:54:29;;;;;;;9.43;2.90;;;;;;;18.60;59.20;101582.50;5033125;28;20561;-68
2021/06/09 06:56:56;;;;;;;3.53;2.20;;;;;;;18.64;59.52;101574.06;5032626;28;20270;-68
2021/06/09 06:59:26;;;;;;;7.00;2.60;;;;;;;18.80;58.34;101573.78;5014759;28;20294;-67
2021/06/09 07:01:52;;;;;;;4.20;2.33;;;;;;;18.87;58.55;101579.56;5032807;28;20196;-67
2021/06/09 07:04:20;;;;;;;3.77;2.23;;;;;;;18.93;58.95;101581.81;5015511;28;20207;-68
2021/06/09 07:06:47;;;;;;;4.67;2.20;;;;;;;19.00;59.05;101586.66;5014772;28;20695;-68
2021/06/09 07:09:13;;;;;;;6.47;2.00;;;;;;;19.07;58.06;101588.88;5014950;28;20638;-68
2021/06/09 07:11:40;;;;;;;7.40;2.90;;;;;;;19.01;58.05;101588.38;5016332;28;20188;-68
2021/06/09 07:14:07;;;;;;;3.37;2.00;;;;;;;19.12;57.84;101592.09;5036663;28;20168;-68
2021/06/09 07:16:33;;;;;;;2.17;1.70;;;;;;;19.26;55.79;101591.88;5036329;28;20184;-68
2021/06/09 07:18:59;;;;;;;1.70;1.60;;;;;;;19.38;55.64;101590.94;5036208;28;20176;-68
2021/06/09 07:21:25;;;;;;;5.60;1.90;;;;;;;19.46;55.30;101583.09;5018385;28;20200;-68
2021/06/09 07:23:50;;;;;;;2.13;1.57;;;;;;;19.55;54.66;101585.09;5018827;28;20180;-68
2021/06/09 07:26:17;;;;;;;5.00;1.73;;;;;;;19.67;53.59;101586.81;5002123;28;20207;-69
2021/06/09 07:28:51;;;;;;;2.30;1.67;;;;;;;19.79;53.74;101582.31;5036356;28;20680;-67
2021/06/09 07:31:21;;;;;;;6.70;1.60;;;;;;;19.76;52.52;101589.81;5036253;28;20196;-68
2021/06/09 07:33:47;;;;;;;3.60;1.47;;;;;;;19.86;52.93;101588.09;5018527;28;20532;-67
2021/06/09 07:36:15;;;;;;;3.90;2.07;;;;;;;19.89;52.52;101593.25;5018623;28;20181;-68
2021/06/09 07:38:44;;;;;;;1.70;1.40;;;;;;;20.02;52.08;101593.13;5036180;28;20180;-68
2021/06/09 07:41:10;;;;;;;4.87;1.90;;;;;;;19.72;53.56;101594.63;5018136;28;20223;-68
2021/06/09 07:43:38;;;;;;;3.37;1.60;;;;;;;19.83;53.24;101599.16;5001798;28;20204;-68
2021/06/09 07:46:09;;;;;;;3.00;1.60;;;;;;;20.00;52.88;101595.97;5002107;28;20219;-68
2021/06/09 07:48:36;;;;;;;5.63;2.07;;;;;;;20.12;52.50;101597.69;5036010;28;20532;-68
2021/06/09 07:51:05;;;;;;;3.13;1.60;;;;;;;20.33;52.23;101592.34;5037084;28;20212;-68
2021/06/09 07:53:30;;;;;;;2.53;1.73;;;;;;;20.49;52.40;101594.72;5018125;28;20192;-68
2021/06/09 07:55:56;;;;;;;2.63;1.23;;;;;;;20.58;52.44;101591.25;5018655;28;20211;-68
2021/06/09 07:58:23;;;;;;;1.73;1.40;;;;;;;20.68;51.78;101584.06;5018971;28;20200;-68
2021/06/09 08:00:52;;;;;;;3.50;1.70;;;;;;;20.71;50.79;101581.06;5037838;28;20200;-67
2021/06/09 08:03:17;;;;;;;2.67;1.80;;;;;;;20.71;51.13;101580.22;5017975;28;20207;-68
2021/06/09 08:05:42;;;;;;;3.67;1.80;;;;;;;20.53;51.99;101585.34;5035845;28;20176;-68
2021/06/09 08:08:11;;;;;;;4.20;1.80;;;;;;;20.71;51.29;101585.66;5035216;28;20200;-68
2021/06/09 08:10:37;;;;;;;5.77;2.37;;;;;;;20.92;50.84;101579.28;5035824;28;20196;-68
2021/06/09 08:13:02;;;;;;;2.00;1.50;;;;;;;20.95;50.36;101582.72;5017585;28;20180;-68
2021/06/09 08:15:28;;;;;;;2.33;1.50;;;;;;;21.08;49.85;101586.97;5035525;28;20177;-68
2021/06/09 08:17:53;;;;;;;6.17;2.63;;;;;;;21.13;50.32;101590.16;5017323;28;20267;-68
2021/06/09 08:20:21;;;;;;;16.17;3.03;;;;;;;21.18;50.51;101590.63;5035155;28;20652;-68
2021/06/09 08:22:46;;;;;;;72.63;7.60;;;;;;;21.03;49.88;101593.78;5017104;28;20199;-68
2021/06/09 08:25:14;;;;;;;5.50;1.93;;;;;;;21.20;49.23;101590.50;5017531;28;20655;-68
2021/06/09 08:27:40;;;;;;;6.00;1.73;;;;;;;20.76;49.74;101592.41;5017524;28;20196;-68
2021/06/09 08:30:07;;;;;;;9.33;4.93;;;;;;;21.21;49.48;101584.94;5034793;28;20176;-68
2021/06/09 08:32:32;;;;;;;4.20;2.00;;;;;;;21.19;48.53;101594.22;5017430;28;20254;-68
2021/06/09 08:34:58;;;;;;;4.60;1.80;;;;;;;21.16;48.28;101587.16;5034864;28;20660;-68
2021/06/09 08:37:23;;;;;;;7.73;5.33;;;;;;;21.32;49.05;101583.19;5034700;28;20176;-68
2021/06/09 08:39:48;;;;;;;3.80;2.93;;;;;;;21.46;48.94;101580.13;5034970;28;20183;-68
2021/06/09 08:42:14;;;;;;;9.20;5.63;;;;;;;21.65;48.59;101587.53;5035207;28;20200;-68
2021/06/09 08:44:41;;;;;;;12.07;9.93;;;;;;;21.71;48.79;101578.84;5035933;28;20230;-69
2021/06/09 08:47:09;;;;;;;4.33;3.43;;;;;;;21.73;48.16;101576.84;5035346;28;20192;-68
2021/06/09 08:49:34;;;;;;;2.40;1.50;;;;;;;21.52;49.33;101575.00;5019146;28;20169;-68
2021/06/09 08:52:02;;;;;;;3.90;2.50;;;;;;;21.78;48.31;101575.44;5037402;28;20716;-70
2021/06/09 08:54:29;;;;;;;2.10;1.90;;;;;;;21.81;47.10;101585.19;5036906;28;20180;-68
2021/06/09 08:56:54;;;;;;;2.77;1.67;;;;;;;21.69;47.91;101578.13;5039950;28;20184;-68
2021/06/09 08:59:23;;;;;;;5.33;1.50;;;;;;;21.69;47.84;101572.69;5034605;28;20180;-68
2021/06/09 09:01:49;;;;;;;3.00;1.73;;;;;;;21.93;48.15;101575.97;5054667;28;20180;-68
2021/06/09 09:04:14;;;;;;;4.60;2.90;;;;;;;22.15;47.17;101574.91;5028786;28;20172;-68
2021/06/09 09:06:40;;;;;;;7.83;2.30;;;;;;;22.12;47.30;101581.50;5055463;28;20184;-68
2021/06/09 09:09:05;;;;;;;2.63;1.70;;;;;;;21.92;46.50;101576.94;5050641;28;20200;-67
2021/06/09 09:11:30;;;;;;;2.77;1.90;;;;;;;21.81;46.89;101577.03;5053153;28;20204;-68
2021/06/09 09:13:56;;;;;;;3.07;1.80;;;;;;;21.92;47.53;101574.22;5043279;28;20184;-68
2021/06/09 09:16:21;;;;;;;3.43;1.67;;;;;;;22.20;47.38;101580.78;5042050;28;20179;-68
2021/06/09 09:18:56;;;;;;;3.23;1.77;;;;;;;22.38;46.84;101575.56;5037478;28;20172;-68
2021/06/09 09:21:39;;;;;;;2.27;1.73;;;;;;;22.38;45.84;101581.00;5035039;28;20210;-69
2021/06/09 09:24:08;;;;;;;9.13;3.27;;;;;;;22.03;46.98;101574.19;5034337;28;20208;-68
2021/06/09 09:26:34;;;;;;;4.00;2.37;;;;;;;22.33;45.88;101584.16;5034365;28;20196;-67
2021/06/09 09:29:14;;;;;;;3.13;1.60;;;;;;;22.49;45.95;101580.88;5034327;28;20183;-68
2021/06/09 09:32:03;;;;;;;2.80;1.97;;;;;;;22.39;45.94;101586.31;5034755;28;20199;-68
2021/06/09 09:34:34;;;;;;;2.80;1.67;;;;;;;22.64;44.99;101578.59;5016024;28;20181;-68
2021/06/09 09:37:14;;;;;;;3.93;2.10;;;;;;;22.58;45.09;101585.47;5033962;28;20688;-68
2021/06/09 09:39:42;;;;;;;3.13;1.70;;;;;;;22.42;45.73;101582.44;5016067;28;20168;-68
2021/06/09 09:42:33;;;;;;;4.83;1.83;;;;;;;22.67;45.64;101581.94;5016193;28;20310;-68
2021/06/09 09:45:24;;;;;;;2.23;1.57;;;;;;;22.85;45.08;101581.25;5016917;28;20156;-68
2021/06/09 09:48:15;;;;;;;2.80;1.80;;;;;;;23.00;45.13;101583.38;5033585;28;20204;-68
2021/06/09 09:50:49;;;;;;;2.20;1.80;;;;;;;23.16;43.44;101582.81;5033655;28;20176;-68
2021/06/09 09:53:21;;;;;;;3.70;2.30;;;;;;;23.26;43.27;101583.66;5016370;28;20168;-68
2021/06/09 09:56:09;;;;;;;4.90;1.70;;;;;;;23.52;44.16;101580.34;5033859;28;20153;-68
2021/06/09 09:58:40;;;;;;;3.03;1.70;;;;;;;23.47;43.03;101582.63;5033893;28;20700;-68
2021/06/09 10:01:17;;;;;;;2.97;1.50;;;;;;;23.64;43.36;101585.47;5015986;28;20219;-68
2021/06/09 10:03:45;;;;;;;3.33;1.70;;;;;;;23.76;43.14;101585.28;5033467;28;20176;-68
2021/06/09 10:06:30;;;;;;;1.63;1.40;;;;;;;23.67;44.29;101582.47;4999508;28;20552;-69
2021/06/09 10:09:09;;;;;;;2.33;1.70;;;;;;;23.91;41.77;101581.97;5034250;28;20603;-68
2021/06/09 10:11:38;;;;;;;2.67;1.20;;;;;;;24.00;41.28;101581.06;5037180;28;20233;-68
2021/06/09 10:14:17;;;;;;;3.37;1.30;;;;;;;24.23;41.17;101575.22;5035488;28;20636;-69
2021/06/09 10:16:43;;;;;;;1.83;1.30;;;;;;;24.69;40.29;101579.69;5015551;28;20172;-68
2021/06/09 10:19:10;;;;;;;2.20;1.80;;;;;;;24.86;40.51;101577.97;5038886;28;20194;-70
2021/06/09 10:21:57;;;;;;;1.90;1.30;;;;;;;24.41;39.73;101573.41;5023915;28;20212;-70
2021/06/09 10:24:24;;;;;;;1.90;1.40;;;;;;;24.46;40.43;101575.66;5016215;28;20203;-68
2021/06/09 10:26:59;;;;;;;2.87;1.80;;;;;;;24.56;40.18;101577.34;5035864;28;20200;-68
2021/06/09 10:29:28;;;;;;;5.40;2.97;;;;;;;24.84;38.64;101580.00;5034035;28;20702;-68
2021/06/09 10:32:08;;;;;;;2.37;1.60;;;;;;;24.99;38.37;101573.00;5033431;28;20189;-68
2021/06/09 10:34:35;;;;;;;2.43;1.53;;;;;;;24.49;39.70;101568.03;5034886;28;20168;-68
2021/06/09 10:37:02;;;;;;;1.53;1.10;;;;;;;25.07;39.38;101564.88;5034034;28;20175;-68
2021/06/09 10:39:30;;;;;;;2.40;1.00;;;;;;;25.70;37.61;101564.69;5034156;28;20208;-68
2021/06/09 10:41:58;;;;;;;5.53;1.33;;;;;;;25.59;37.97;101558.59;5033324;28;20578;-69
2021/06/09 10:44:25;;;;;;;1.30;1.20;;;;;;;26.08;37.21;101557.88;5037138;28;20759;-68
2021/06/09 10:46:54;;;;;;;2.63;1.30;;;;;;;25.66;36.41;101562.44;5036829;28;20264;-68
2021/06/09 10:49:21;;;;;;;3.77;1.47;;;;;;;26.10;35.88;101565.94;5037365;28;20172;-68
2021/06/09 10:51:49;;;;;;;2.93;1.47;;;;;;;26.32;35.30;101557.09;5019051;28;20207;-69
2021/06/09 10:54:15;;;;;;;4.23;1.83;;;;;;;26.51;35.34;101563.38;5038047;28;20180;-69
2021/06/09 10:56:42;;;;;;;2.57;1.80;;;;;;;26.55;35.15;101562.00;5037183;28;20172;-68
2021/06/09 10:59:10;;;;;;;5.90;2.40;;;;;;;26.63;35.57;101553.78;5037102;28;20653;-69
2021/06/09 11:01:36;;;;;;;2.23;1.80;;;;;;;27.47;33.84;101560.84;5036798;28;20192;-69
2021/06/09 11:04:01;;;;;;;5.03;2.57;;;;;;;29.11;32.00;101560.81;5019709;28;20180;-69
2021/06/09 11:06:37;;;;;;;3.90;2.33;;;;;;;30.31;29.74;101547.84;5037610;28;20211;-69
2021/06/09 11:09:13;;;;;;;3.72;1.60;;;;;;;30.49;29.85;101550.19;5036899;28;20172;-69
2021/06/09 11:11:38;;;;;;;4.60;1.30;;;;;;;31.62;27.46;101547.47;5036683;28;20199;-69
2021/06/09 11:14:25;;;;;;;1.73;1.10;;;;;;;30.66;27.86;101543.41;5019440;28;20184;-70
2021/06/09 11:16:54;;;;;;;2.25;1.13;;;;;;;29.85;29.46;101534.31;5037370;28;20172;-69
2021/06/09 11:19:42;;;;;;;2.90;1.00;;;;;;;30.18;27.63;101536.69;5019903;28;20176;-70
2021/06/09 11:22:27;;;;;;;1.55;0.75;;;;;;;30.92;27.16;101533.72;5038200;28;20200;-70
2021/06/09 11:25:11;;;;;;;1.85;0.85;;;;;;;32.69;25.40;101546.91;5036708;28;20207;-70
2021/06/09 11:27:59;;;;;;;2.75;1.20;;;;;;;34.92;23.19;101545.84;5037608;28;20187;-70
2021/06/09 11:30:24;;;;;;;1.58;0.90;;;;;;;33.82;23.88;101536.72;5036480;28;20200;-69